Time;durP1;ratioP1;P1;durP2;ratioP2;P2;SDS_P1;SDS_P2;PMS_P1;PMS_P2;Temp;Humidity;BMP_temperature;BMP_pressure;BME280_temperature;BME280_humidity;BME280_pressure;Samples;Min_cycle;Max_cycle;Signal;HPM_P1;HPM_P2
2023/09/05 00:01:04;;;;;;;3.83;3.30;;;;;;;17.34;76.78;94775.56;4191659;28;20044;-73
2023/09/05 00:03:07;;;;;;;4.10;2.72;;;;;;;17.33;76.44;94770.47;4191929;28;20507;-76
2023/09/05 00:05:09;;;;;;;3.40;2.90;;;;;;;17.31;76.69;94764.56;4188620;28;20580;-74
2023/09/05 00:07:12;;;;;;;3.60;2.60;;;;;;;17.31;76.61;94775.16;4174628;28;20041;-75
2023/09/05 00:09:14;;;;;;;3.63;3.10;;;;;;;17.32;76.69;94774.94;4188286;28;20159;-73
2023/09/05 00:11:16;;;;;;;3.95;2.83;;;;;;;17.35;76.80;94773.72;4182548;28;20049;-76
2023/09/05 00:13:18;;;;;;;3.50;3.10;;;;;;;17.36;76.71;94762.16;4179893;28;20041;-74
2023/09/05 00:15:20;;;;;;;4.00;2.92;;;;;;;17.38;76.63;94758.28;4185326;28;20360;-74
2023/09/05 00:17:21;;;;;;;3.58;3.28;;;;;;;17.39;76.46;94757.25;4168362;28;20051;-75
2023/09/05 00:19:23;;;;;;;4.47;3.55;;;;;;;17.38;76.15;94754.81;4185004;28;20060;-74
2023/09/05 00:21:25;;;;;;;4.78;2.92;;;;;;;17.37;76.47;94753.16;4192624;28;20123;-77
2023/09/05 00:23:27;;;;;;;4.60;4.10;;;;;;;17.37;76.59;94739.94;4194392;28;20501;-73
2023/09/05 00:25:28;;;;;;;5.93;3.40;;;;;;;17.33;76.57;94744.78;4189123;28;20131;-76
2023/09/05 00:27:30;;;;;;;3.00;2.70;;;;;;;17.34;76.94;94756.22;4185977;28;20053;-73
2023/09/05 00:29:32;;;;;;;2.92;2.60;;;;;;;17.33;76.79;94749.28;4196431;28;20298;-75
2023/09/05 00:31:35;;;;;;;3.00;2.70;;;;;;;17.34;77.08;94749.09;4191081;28;20131;-75
2023/09/05 00:33:37;;;;;;;10.00;4.70;;;;;;;17.37;76.94;94753.97;4174874;28;20053;-73
2023/09/05 00:35:39;;;;;;;4.63;4.10;;;;;;;17.39;76.76;94751.13;4168990;28;20481;-75
2023/09/05 00:37:41;;;;;;;5.63;3.13;;;;;;;17.39;76.77;94743.19;4182924;28;20051;-73
2023/09/05 00:39:44;;;;;;;3.90;3.22;;;;;;;17.37;76.84;94737.28;4189057;28;20136;-76
2023/09/05 00:41:46;;;;;;;2.92;2.45;;;;;;;17.40;76.73;94736.88;4188472;28;20041;-74
2023/09/05 00:43:49;;;;;;;2.70;2.00;;;;;;;17.38;76.60;94746.88;4182457;28;20380;-75
2023/09/05 00:45:53;;;;;;;2.55;2.20;;;;;;;17.36;76.40;94730.38;4191975;28;20365;-74
2023/09/05 00:47:57;;;;;;;2.75;2.25;;;;;;;17.39;76.39;94741.34;4172204;28;20075;-74
2023/09/05 00:50:05;;;;;;;;;;;;;;;17.42;76.52;94734.84;4191485;28;20235;-73
2023/09/05 00:52:09;;;;;;;3.42;2.80;;;;;;;17.44;76.63;94740.75;4191353;28;19928;-74
2023/09/05 00:54:11;;;;;;;2.97;2.33;;;;;;;17.43;76.63;94733.84;4172919;28;20304;-75
2023/09/05 00:56:13;;;;;;;2.38;1.95;;;;;;;17.40;76.28;94731.56;4194230;28;20056;-76
2023/09/05 00:58:15;;;;;;;3.20;1.83;;;;;;;17.39;75.96;94729.97;4201135;28;20642;-72
2023/09/05 01:00:17;;;;;;;2.53;2.20;;;;;;;17.40;75.85;94734.22;4179739;28;20044;-74
2023/09/05 01:02:19;;;;;;;9.55;2.20;;;;;;;17.42;76.13;94734.03;4188687;28;20599;-74
2023/09/05 01:04:22;;;;;;;2.25;1.90;;;;;;;17.44;76.05;94726.69;4179451;28;20422;-73
2023/09/05 01:06:37;;;;;;;2.67;1.85;;;;;;;17.44;76.00;94732.00;4190845;28;20133;-76
2023/09/05 01:08:46;;;;;;;3.58;2.22;;;;;;;17.42;75.61;94729.53;4170986;28;20057;-78
2023/09/05 01:10:49;;;;;;;2.72;2.28;;;;;;;17.39;75.92;94735.25;4173620;28;20052;-75
2023/09/05 01:12:50;;;;;;;2.55;2.10;;;;;;;17.29;75.43;94727.69;4159841;28;20061;-75
2023/09/05 01:14:53;;;;;;;3.42;2.15;;;;;;;17.29;75.65;94732.97;4185107;28;20120;-74
2023/09/05 01:17:01;;;;;;;2.92;2.40;;;;;;;17.34;76.00;94730.56;4188590;28;20151;-72
2023/09/05 01:19:03;;;;;;;2.50;2.30;;;;;;;17.42;75.93;94741.97;4188216;28;20136;-73
2023/09/05 01:21:21;;;;;;;2.40;2.20;;;;;;;17.39;75.62;94744.00;4191962;28;20071;-76
2023/09/05 01:23:28;;;;;;;3.75;2.33;;;;;;;17.43;75.92;94746.28;4193997;28;20048;-73
2023/09/05 01:25:30;;;;;;;3.40;2.35;;;;;;;17.46;75.82;94748.50;4169213;28;20068;-74
2023/09/05 01:27:32;;;;;;;3.90;2.50;;;;;;;17.46;75.66;94745.84;4188656;28;20644;-74
2023/09/05 01:29:35;;;;;;;2.90;2.35;;;;;;;17.49;75.59;94748.94;4190706;28;20068;-73
2023/09/05 01:31:38;;;;;;;2.50;2.10;;;;;;;17.53;75.55;94746.69;4166187;28;20045;-74
2023/09/05 01:33:40;;;;;;;3.42;2.38;;;;;;;17.48;74.87;94747.28;4169173;28;20406;-75
2023/09/05 01:35:42;;;;;;;3.78;2.50;;;;;;;17.47;75.28;94742.22;4186550;28;20413;-73
2023/09/05 01:37:44;;;;;;;2.92;2.28;;;;;;;17.44;75.14;94724.06;4195488;28;20079;-76
2023/09/05 01:39:46;;;;;;;3.67;2.28;;;;;;;17.43;75.17;94728.53;4178212;28;20045;-75
2023/09/05 01:41:50;;;;;;;2.60;2.05;;;;;;;17.34;75.40;94727.09;4173602;28;20048;-75
2023/09/05 01:43:52;;;;;;;3.00;2.30;;;;;;;17.33;75.61;94728.09;4194658;28;20078;-75
2023/09/05 01:45:53;;;;;;;2.90;2.13;;;;;;;17.37;75.27;94724.84;4193626;28;20426;-74
2023/09/05 01:47:55;;;;;;;3.05;2.42;;;;;;;17.39;75.34;94730.75;4191077;28;20163;-75
2023/09/05 01:49:57;;;;;;;2.95;2.65;;;;;;;17.38;75.34;94723.84;4173803;28;20467;-75
2023/09/05 01:51:59;;;;;;;2.95;2.50;;;;;;;17.30;75.04;94723.22;4196744;28;20402;-74
2023/09/05 01:54:00;;;;;;;3.58;2.25;;;;;;;17.25;75.28;94721.19;4179290;28;20155;-74
2023/09/05 01:56:02;;;;;;;2.55;2.22;;;;;;;17.19;75.62;94717.47;4194766;28;20193;-73
2023/09/05 01:58:04;;;;;;;4.38;2.22;;;;;;;17.15;75.73;94724.19;4190367;28;20049;-76
2023/09/05 02:00:06;;;;;;;2.80;2.00;;;;;;;17.20;75.96;94732.34;4191510;28;20075;-75
2023/09/05 02:02:08;;;;;;;2.50;2.20;;;;;;;17.24;76.24;94727.47;4189855;28;20049;-73
2023/09/05 02:04:10;;;;;;;2.80;2.20;;;;;;;17.31;76.10;94736.25;4171724;28;20080;-75
2023/09/05 02:06:13;;;;;;;2.90;2.55;;;;;;;17.32;76.12;94729.94;4176448;28;20129;-76
2023/09/05 02:08:14;;;;;;;4.22;2.30;;;;;;;17.34;75.95;94729.75;4195323;28;20143;-74
2023/09/05 02:10:16;;;;;;;3.25;2.53;;;;;;;17.34;75.53;94732.41;4185922;28;20075;-74
2023/09/05 02:12:18;;;;;;;3.15;2.47;;;;;;;17.19;75.33;94728.06;4190411;28;20468;-74
2023/09/05 02:14:20;;;;;;;2.88;2.10;;;;;;;17.15;75.46;94737.41;4179529;28;20049;-74
2023/09/05 02:16:24;;;;;;;2.53;2.22;;;;;;;17.16;75.64;94738.22;4186582;28;20048;-74
2023/09/05 02:18:26;;;;;;;3.10;2.60;;;;;;;17.18;76.08;94734.38;4193057;28;20158;-74
2023/09/05 02:20:28;;;;;;;2.90;2.58;;;;;;;17.23;76.25;94747.03;4187446;28;20049;-74
2023/09/05 02:22:30;;;;;;;3.30;2.47;;;;;;;17.23;76.13;94754.97;4200816;28;20122;-74
2023/09/05 02:24:32;;;;;;;4.93;2.80;;;;;;;17.24;75.77;94753.13;4190848;28;20064;-74
2023/09/05 02:26:37;;;;;;;3.10;2.70;;;;;;;17.26;76.25;94756.41;4174498;28;20100;-76
2023/09/05 02:28:39;;;;;;;2.85;2.55;;;;;;;17.30;76.14;94752.34;4155820;28;20045;-74
2023/09/05 02:30:42;;;;;;;6.25;2.80;;;;;;;17.36;76.01;94754.19;4198240;28;20463;-75
2023/09/05 02:32:44;;;;;;;4.22;3.10;;;;;;;17.38;75.86;94752.97;4188429;28;20044;-74
2023/09/05 02:34:52;;;;;;;6.07;3.03;;;;;;;17.43;75.92;94748.91;4187357;28;20429;-75
2023/09/05 02:36:54;;;;;;;4.05;3.35;;;;;;;17.44;75.37;94751.34;4197863;28;20131;-75
2023/09/05 02:38:58;;;;;;;4.03;3.42;;;;;;;17.45;75.39;94742.41;4190672;28;20533;-74
2023/09/05 02:40:59;;;;;;;4.63;3.63;;;;;;;17.42;74.89;94755.22;4189855;28;20053;-75
2023/09/05 02:43:01;;;;;;;3.92;3.53;;;;;;;17.42;75.00;94760.50;4192003;28;20455;-76
2023/09/05 02:45:03;;;;;;;5.50;3.83;;;;;;;17.36;75.22;94751.56;4193841;28;20396;-73
2023/09/05 02:47:05;;;;;;;4.25;3.85;;;;;;;17.24;75.07;94747.84;4193060;28;20101;-73
2023/09/05 02:49:06;;;;;;;5.20;4.20;;;;;;;17.18;74.80;94744.16;4187829;28;20541;-75
2023/09/05 02:51:10;;;;;;;4.80;4.30;;;;;;;17.15;75.55;94744.56;4194414;28;20111;-73
2023/09/05 02:53:11;;;;;;;5.72;4.30;;;;;;;17.18;75.80;94746.78;4175814;28;20072;-75
2023/09/05 02:55:14;;;;;;;5.07;4.57;;;;;;;17.20;75.90;94745.56;4185925;28;20072;-75
2023/09/05 02:57:15;;;;;;;5.25;4.60;;;;;;;17.25;75.84;94747.66;4192725;28;20046;-74
2023/09/05 02:59:17;;;;;;;5.68;4.72;;;;;;;17.26;75.65;94748.47;4180055;28;20091;-75
2023/09/05 03:01:22;;;;;;;6.32;4.65;;;;;;;17.26;75.44;94741.31;4192775;28;20060;-75
2023/09/05 03:03:24;;;;;;;7.03;4.93;;;;;;;17.21;74.86;94749.06;4179758;28;20068;-75
2023/09/05 03:05:26;;;;;;;5.35;4.85;;;;;;;17.15;75.32;94750.66;4161733;28;20469;-74
2023/09/05 03:07:28;;;;;;;5.72;4.93;;;;;;;17.11;75.62;94753.91;4193044;28;20118;-76
2023/09/05 03:09:30;;;;;;;6.00;5.43;;;;;;;17.08;75.73;94757.78;4194899;28;20178;-75
2023/09/05 03:11:32;;;;;;;5.72;4.85;;;;;;;17.10;76.20;94762.84;4195701;28;20052;-73
2023/09/05 03:13:34;;;;;;;6.78;5.25;;;;;;;17.13;76.13;94757.97;4184456;28;20107;-73
2023/09/05 03:15:35;;;;;;;6.85;5.35;;;;;;;17.12;75.50;94751.06;4192451;28;20154;-75
2023/09/05 03:17:37;;;;;;;8.57;5.40;;;;;;;17.08;75.39;94752.47;4191543;28;20278;-75
2023/09/05 03:19:39;;;;;;;6.35;5.55;;;;;;;17.06;75.10;94751.84;4180032;28;20045;-74
2023/09/05 03:21:41;;;;;;;7.03;5.57;;;;;;;17.03;75.52;94751.44;4181129;28;20154;-74
2023/09/05 03:23:43;;;;;;;7.03;5.75;;;;;;;17.04;75.74;94759.19;4182093;28;20383;-75
2023/09/05 03:25:45;;;;;;;6.88;6.18;;;;;;;17.02;75.15;94766.50;4185751;28;20052;-75
2023/09/05 03:27:47;;;;;;;6.85;6.22;;;;;;;16.98;74.84;94770.53;4178429;28;20148;-75
2023/09/05 03:29:49;;;;;;;6.85;6.25;;;;;;;16.97;75.56;94769.72;4191652;28;20155;-74
2023/09/05 03:31:52;;;;;;;8.30;5.78;;;;;;;17.02;75.73;94779.72;4193538;28;20476;-75
2023/09/05 03:33:55;;;;;;;7.45;6.53;;;;;;;17.09;75.98;94783.22;4192974;28;20086;-73
2023/09/05 03:35:56;;;;;;;6.63;6.03;;;;;;;17.15;75.99;94792.19;4187624;28;20472;-76
2023/09/05 03:37:58;;;;;;;7.82;6.20;;;;;;;17.18;75.88;94782.00;4195458;28;20048;-75
2023/09/05 03:40:00;;;;;;;6.68;6.07;;;;;;;17.24;75.77;94785.72;4193975;28;20056;-74
2023/09/05 03:42:02;;;;;;;7.72;6.63;;;;;;;17.26;75.55;94796.13;4197036;28;20123;-75
2023/09/05 03:44:04;;;;;;;8.02;7.20;;;;;;;17.28;75.84;94789.59;4177353;28;20124;-76
2023/09/05 03:46:06;;;;;;;7.10;6.50;;;;;;;17.29;75.60;94788.56;4200203;28;20056;-75
2023/09/05 03:48:08;;;;;;;6.97;6.25;;;;;;;17.24;75.23;94783.06;4198920;28;20117;-74
2023/09/05 03:50:09;;;;;;;7.80;6.70;;;;;;;17.23;75.33;94785.91;4196065;28;20844;-76
2023/09/05 03:52:11;;;;;;;7.78;6.97;;;;;;;17.23;75.57;94785.91;4204148;28;20453;-75
2023/09/05 03:54:13;;;;;;;8.73;7.13;;;;;;;17.22;75.65;94787.75;4198149;28;20456;-75
2023/09/05 03:56:17;;;;;;;8.50;7.70;;;;;;;17.16;74.68;94786.72;4184486;28;20044;-74
2023/09/05 03:58:19;;;;;;;;;;;;;;;17.05;74.84;94781.97;4177972;28;20049;-74
2023/09/05 04:00:20;;;;;;;9.90;8.90;;;;;;;16.89;75.04;94779.66;4195682;28;19924;-74
2023/09/05 04:02:22;;;;;;;11.60;9.10;;;;;;;16.82;75.31;94779.63;4177385;28;20148;-73
2023/09/05 04:04:24;;;;;;;10.15;9.15;;;;;;;16.83;75.52;94783.91;4193618;28;20056;-76
2023/09/05 04:06:26;;;;;;;12.65;10.15;;;;;;;16.66;75.13;94772.78;4194645;28;20051;-76
2023/09/05 04:08:28;;;;;;;12.48;11.20;;;;;;;16.54;75.80;94777.81;4187828;28;20041;-75
2023/09/05 04:10:29;;;;;;;11.85;10.55;;;;;;;16.42;76.04;94778.53;4173452;28;20048;-74
2023/09/05 04:12:31;;;;;;;15.30;11.07;;;;;;;16.46;76.01;94782.44;4192031;28;20404;-75
2023/09/05 04:14:33;;;;;;;12.68;11.35;;;;;;;16.42;75.72;94778.53;4169278;28;20465;-75
2023/09/05 04:16:34;;;;;;;13.20;11.93;;;;;;;16.53;76.26;94785.94;4188822;28;20064;-75
2023/09/05 04:18:36;;;;;;;12.45;11.25;;;;;;;16.64;76.03;94785.38;4182466;28;20053;-78
2023/09/05 04:20:38;;;;;;;12.98;11.70;;;;;;;16.76;75.89;94794.41;4197219;28;20047;-75
2023/09/05 04:22:40;;;;;;;12.77;11.55;;;;;;;16.87;75.62;94794.91;4194666;28;20353;-76
2023/09/05 04:24:42;;;;;;;14.35;11.85;;;;;;;16.92;75.55;94792.50;4175943;28;20100;-77
2023/09/05 04:26:45;;;;;;;12.57;11.30;;;;;;;17.02;75.34;94795.59;4194911;28;20048;-76
2023/09/05 04:28:47;;;;;;;13.48;12.07;;;;;;;17.08;74.89;94792.19;4175547;28;20140;-75
2023/09/05 04:30:48;;;;;;;12.82;11.27;;;;;;;17.05;74.09;94800.50;4193581;28;20048;-77
2023/09/05 04:32:50;;;;;;;14.88;12.18;;;;;;;17.07;74.33;94793.16;4192436;28;20151;-77
2023/09/05 04:34:55;;;;;;;15.27;12.75;;;;;;;17.14;74.69;94795.84;4187486;28;20056;-76
2023/09/05 04:36:57;;;;;;;13.40;11.98;;;;;;;17.14;73.71;94793.19;4171832;28;20053;-77
2023/09/05 04:39:01;;;;;;;14.23;12.88;;;;;;;17.08;74.26;94791.34;4186656;28;20140;-75
2023/09/05 04:41:03;;;;;;;;;;;;;;;16.91;73.98;94790.88;4195048;28;20468;-78
2023/09/05 04:43:05;;;;;;;15.52;12.57;;;;;;;16.93;74.94;94783.56;4184835;28;20595;-78
2023/09/05 04:45:09;;;;;;;15.15;12.48;;;;;;;16.82;74.58;94794.66;4174721;28;20155;-78
2023/09/05 04:47:20;;;;;;;14.23;12.15;;;;;;;16.69;74.80;94788.28;4199666;28;20140;-76
2023/09/05 04:49:22;;;;;;;14.77;12.60;;;;;;;16.59;75.45;94790.44;4193495;28;20162;-77
2023/09/05 04:51:24;;;;;;;14.02;12.48;;;;;;;16.65;75.62;94786.19;4174617;28;20056;-76
2023/09/05 04:53:26;;;;;;;16.58;12.98;;;;;;;16.68;75.74;94789.28;4175427;28;20040;-76
2023/09/05 04:55:28;;;;;;;13.50;12.20;;;;;;;16.82;75.58;94786.72;4186639;28;20045;-75
2023/09/05 04:57:30;;;;;;;16.13;12.13;;;;;;;16.84;74.98;94787.34;4188073;28;20044;-76
2023/09/05 04:59:32;;;;;;;17.30;12.98;;;;;;;16.88;75.04;94784.13;4180086;28;20075;-76
2023/09/05 05:01:34;;;;;;;13.50;12.20;;;;;;;16.96;75.06;94777.84;4170538;28;20045;-76
2023/09/05 05:03:36;;;;;;;13.60;12.23;;;;;;;17.14;75.26;94790.56;4188381;28;20049;-75
2023/09/05 05:05:38;;;;;;;15.07;13.13;;;;;;;17.28;75.17;94794.91;4179838;28;20056;-75
2023/09/05 05:07:40;;;;;;;15.82;13.63;;;;;;;17.40;74.73;94787.19;4166283;28;20078;-75
2023/09/05 05:09:43;;;;;;;15.02;13.52;;;;;;;17.46;73.63;94791.69;4196242;28;20462;-74
2023/09/05 05:11:44;;;;;;;13.23;12.02;;;;;;;17.38;73.50;94789.25;4179749;28;20186;-76
2023/09/05 05:13:46;;;;;;;15.25;13.70;;;;;;;17.26;73.12;94790.81;4179542;28;20048;-78
2023/09/05 05:15:48;;;;;;;14.07;12.77;;;;;;;17.12;73.21;94797.88;4181151;28;20525;-75
2023/09/05 05:17:50;;;;;;;12.82;11.40;;;;;;;17.17;73.42;94796.28;4194259;28;20048;-75
2023/09/05 05:19:52;;;;;;;14.15;12.60;;;;;;;17.26;73.52;94796.13;4186765;28;20074;-73
2023/09/05 05:21:53;;;;;;;12.63;11.43;;;;;;;17.13;73.06;94795.03;4193022;28;20052;-75
2023/09/05 05:23:55;;;;;;;15.88;12.23;;;;;;;16.90;73.35;94794.50;4189975;28;20469;-75
2023/09/05 05:25:58;;;;;;;13.35;11.70;;;;;;;16.87;73.01;94802.84;4168928;28;20053;-75
2023/09/05 05:28:00;;;;;;;13.85;12.32;;;;;;;16.93;73.37;94804.72;4168968;28;20527;-76
2023/09/05 05:30:02;;;;;;;14.63;12.88;;;;;;;16.89;73.53;94800.84;4194312;28;20044;-77
2023/09/05 05:32:04;;;;;;;13.35;12.00;;;;;;;16.88;73.68;94799.19;4190112;28;20061;-74
2023/09/05 05:34:06;;;;;;;13.80;12.50;;;;;;;16.84;73.61;94805.88;4189416;28;20061;-77
2023/09/05 05:36:09;;;;;;;14.13;12.65;;;;;;;16.90;74.06;94789.22;4195952;28;20044;-75
2023/09/05 05:38:14;;;;;;;13.70;12.25;;;;;;;16.82;74.45;94786.72;4191228;28;20523;-78
2023/09/05 05:40:16;;;;;;;15.77;12.57;;;;;;;16.82;74.77;94797.31;4190845;28;20698;-76
2023/09/05 05:42:18;;;;;;;13.85;12.30;;;;;;;16.87;74.26;94795.72;4196402;28;20056;-75
2023/09/05 05:44:20;;;;;;;14.38;12.88;;;;;;;16.93;74.48;94808.19;4194947;28;20040;-75
2023/09/05 05:46:22;;;;;;;15.10;13.50;;;;;;;16.99;74.36;94804.75;4196166;28;20052;-77
2023/09/05 05:48:25;;;;;;;14.43;13.02;;;;;;;16.98;73.77;94803.09;4190455;28;20083;-76
2023/09/05 05:50:28;;;;;;;15.15;13.65;;;;;;;17.00;73.88;94805.56;4171289;28;20045;-76
2023/09/05 05:52:29;;;;;;;14.85;12.60;;;;;;;17.08;73.77;94802.75;4196434;28;20052;-76
2023/09/05 05:54:31;;;;;;;16.67;13.35;;;;;;;17.04;73.55;94798.88;4194887;28;20101;-74
2023/09/05 05:56:34;;;;;;;15.43;13.82;;;;;;;16.97;74.09;94805.94;4178014;28;20417;-75
2023/09/05 05:58:37;;;;;;;16.20;14.48;;;;;;;16.93;74.37;94813.47;4192315;28;20049;-75
2023/09/05 06:00:45;;;;;;;15.75;13.95;;;;;;;17.07;73.95;94810.91;4165624;28;20481;-77
2023/09/05 06:02:47;;;;;;;15.57;13.98;;;;;;;17.14;73.10;94809.91;4193372;28;20052;-76
2023/09/05 06:04:49;;;;;;;15.35;13.88;;;;;;;17.03;73.61;94812.28;4180776;28;20059;-75
2023/09/05 06:06:51;;;;;;;15.65;14.05;;;;;;;16.82;74.25;94816.69;4180149;28;20049;-76
2023/09/05 06:08:53;;;;;;;16.63;13.85;;;;;;;16.77;74.27;94805.81;4181578;28;20071;-74
2023/09/05 06:10:55;;;;;;;19.92;14.40;;;;;;;16.86;73.92;94812.59;4166068;28;20041;-77
2023/09/05 06:12:57;;;;;;;16.73;13.82;;;;;;;16.55;74.36;94805.06;4193181;28;20511;-77
2023/09/05 06:15:00;;;;;;;17.08;14.82;;;;;;;16.61;75.14;94816.72;4181664;28;20136;-75
2023/09/05 06:17:03;;;;;;;15.93;14.23;;;;;;;16.62;74.78;94813.84;4184237;28;20072;-75
2023/09/05 06:19:04;;;;;;;15.75;14.15;;;;;;;16.74;74.53;94807.03;4181988;28;20405;-76
2023/09/05 06:21:06;;;;;;;15.57;14.07;;;;;;;16.86;74.31;94809.97;4196904;28;20140;-77
2023/09/05 06:23:08;;;;;;;16.05;14.25;;;;;;;17.01;73.89;94811.66;4188282;28;20145;-75
2023/09/05 06:25:10;;;;;;;16.23;14.52;;;;;;;16.94;73.38;94809.81;4179763;28;20045;-76
2023/09/05 06:27:11;;;;;;;15.68;14.07;;;;;;;16.87;73.67;94805.50;4194001;28;20462;-78
2023/09/05 06:29:13;;;;;;;17.10;13.82;;;;;;;16.74;73.87;94807.03;4190753;28;20345;-77
2023/09/05 06:31:15;;;;;;;14.55;13.18;;;;;;;16.82;73.80;94803.44;4182467;28;20454;-77
2023/09/05 06:33:17;;;;;;;15.32;13.82;;;;;;;16.77;73.75;94817.19;4172813;28;20049;-78
2023/09/05 06:35:19;;;;;;;15.32;13.13;;;;;;;16.78;73.95;94813.56;4194168;28;20051;-76
2023/09/05 06:37:24;;;;;;;15.50;13.90;;;;;;;16.87;74.31;94808.97;4191494;28;20132;-76
2023/09/05 06:39:26;;;;;;;16.23;13.85;;;;;;;16.95;73.76;94807.97;4194342;28;20135;-77
2023/09/05 06:41:29;;;;;;;16.30;14.13;;;;;;;17.07;73.96;94817.00;4184944;28;20051;-75
2023/09/05 06:43:34;;;;;;;15.63;14.10;;;;;;;17.13;73.59;94826.81;4193381;28;20460;-77
2023/09/05 06:45:36;;;;;;;14.25;12.73;;;;;;;17.16;73.53;94826.44;4195947;28;20123;-78
2023/09/05 06:47:37;;;;;;;14.70;13.23;;;;;;;17.21;72.90;94831.13;4171983;28;20137;-75
2023/09/05 06:49:39;;;;;;;17.55;14.65;;;;;;;17.28;72.78;94828.50;4191116;28;20443;-76
2023/09/05 06:51:41;;;;;;;15.43;12.80;;;;;;;17.29;72.77;94830.13;4185714;28;20054;-76
2023/09/05 06:53:43;;;;;;;14.55;12.32;;;;;;;17.31;72.54;94825.44;4193041;28;20049;-74
2023/09/05 06:55:46;;;;;;;14.75;12.30;;;;;;;17.36;72.51;94815.91;4192246;28;20051;-76
2023/09/05 06:57:47;;;;;;;13.45;11.85;;;;;;;17.35;71.70;94824.03;4195567;28;20052;-75
2023/09/05 06:59:50;;;;;;;15.88;11.98;;;;;;;17.43;72.18;94829.16;4190854;28;20139;-76
2023/09/05 07:01:52;;;;;;;13.60;12.10;;;;;;;17.39;71.87;94823.44;4172246;28;20048;-76
2023/09/05 07:03:54;;;;;;;13.55;12.23;;;;;;;17.55;71.83;94826.75;4176980;28;20131;-76
2023/09/05 07:05:57;;;;;;;14.00;12.55;;;;;;;17.56;70.82;94820.47;4194047;28;20048;-75
2023/09/05 07:08:07;;;;;;;12.80;11.30;;;;;;;17.48;70.69;94824.09;4184438;28;20106;-78
2023/09/05 07:10:09;;;;;;;11.63;10.43;;;;;;;17.39;71.53;94820.00;4196182;28;20051;-76
2023/09/05 07:12:11;;;;;;;13.40;12.00;;;;;;;17.27;71.58;94838.28;4193908;28;20087;-79
2023/09/05 07:14:13;;;;;;;11.85;10.65;;;;;;;17.15;72.51;94851.25;4185536;28;20083;-76
2023/09/05 07:16:15;;;;;;;13.60;12.20;;;;;;;17.32;71.85;94854.38;4188881;28;20049;-75
2023/09/05 07:18:17;;;;;;;13.23;11.75;;;;;;;17.34;71.29;94856.84;4184895;28;20044;-76
2023/09/05 07:20:18;;;;;;;16.15;11.85;;;;;;;17.44;71.10;94849.34;4164826;28;20080;-77
2023/09/05 07:22:22;;;;;;;14.98;12.02;;;;;;;17.49;70.89;94860.16;4180458;28;20053;-77
2023/09/05 07:24:23;;;;;;;14.30;12.82;;;;;;;17.55;70.72;94856.72;4193344;28;20048;-75
2023/09/05 07:26:25;;;;;;;13.85;11.80;;;;;;;17.43;70.41;94853.00;4155779;28;20425;-75
2023/09/05 07:28:28;;;;;;;16.50;12.75;;;;;;;17.29;71.00;94854.75;4188537;28;20063;-76
2023/09/05 07:30:32;;;;;;;14.10;11.45;;;;;;;17.34;71.10;94862.16;4171710;28;20085;-76
2023/09/05 07:32:34;;;;;;;13.18;10.85;;;;;;;17.35;71.09;94853.97;4194603;28;20045;-77
2023/09/05 07:34:37;;;;;;;14.48;11.35;;;;;;;17.37;71.05;94870.50;4187042;28;20037;-77
2023/09/05 07:36:40;;;;;;;13.27;10.18;;;;;;;17.50;71.02;94875.03;4189989;28;20136;-76
2023/09/05 07:38:42;;;;;;;12.38;10.55;;;;;;;17.48;70.83;94876.25;4172436;28;20045;-78
2023/09/05 07:40:43;;;;;;;12.25;10.00;;;;;;;17.43;70.87;94876.03;4191803;28;20053;-76
2023/09/05 07:42:45;;;;;;;13.90;10.55;;;;;;;17.34;70.70;94884.13;4195102;28;20049;-76
2023/09/05 07:44:47;;;;;;;16.27;9.90;;;;;;;17.27;71.18;94891.25;4194489;28;20059;-74
2023/09/05 07:46:48;;;;;;;12.43;10.07;;;;;;;17.33;70.97;94884.31;4192667;28;20049;-76
2023/09/05 07:48:52;;;;;;;12.70;10.20;;;;;;;17.27;71.38;94895.69;4186864;28;21403;-74
2023/09/05 07:51:05;;;;;;;13.60;10.18;;;;;;;17.28;71.46;94897.34;4166272;28;20433;-78
2023/09/05 07:53:07;;;;;;;13.02;10.52;;;;;;;17.13;71.76;94884.22;4187385;28;20499;-76
2023/09/05 07:55:09;;;;;;;10.90;9.80;;;;;;;17.05;72.28;94887.84;4182891;28;20041;-77
2023/09/05 07:57:11;;;;;;;10.95;9.85;;;;;;;17.01;72.18;94888.41;4189759;28;20041;-77
2023/09/05 07:59:12;;;;;;;12.40;10.63;;;;;;;16.94;72.85;94891.03;4184048;28;20103;-77
2023/09/05 08:01:16;;;;;;;11.85;10.23;;;;;;;17.04;72.20;94886.22;4191237;28;20051;-76
2023/09/05 08:03:18;;;;;;;13.00;10.32;;;;;;;17.10;72.23;94888.09;4184174;28;20052;-77
2023/09/05 08:05:20;;;;;;;12.77;10.68;;;;;;;17.18;72.13;94887.91;4188437;28;20054;-78
2023/09/05 08:07:21;;;;;;;12.48;10.70;;;;;;;17.38;71.79;94888.03;4189909;28;20772;-76
2023/09/05 08:09:23;;;;;;;14.02;11.05;;;;;;;17.45;71.40;94888.06;4170721;28;20480;-77
2023/09/05 08:11:25;;;;;;;14.15;10.88;;;;;;;17.51;71.21;94887.28;4195492;28;20099;-81
2023/09/05 08:13:27;;;;;;;12.40;10.05;;;;;;;17.60;70.39;94875.47;4195565;28;20143;-79
2023/09/05 08:15:29;;;;;;;12.35;9.80;;;;;;;17.76;70.25;94884.09;4188753;28;20121;-77
2023/09/05 08:17:31;;;;;;;11.63;10.43;;;;;;;17.83;69.77;94877.00;4186897;28;20119;-78
2023/09/05 08:19:33;;;;;;;12.20;9.40;;;;;;;17.83;70.02;94887.59;4180130;28;20159;-77
2023/09/05 08:21:35;;;;;;;10.98;9.55;;;;;;;17.96;69.93;94890.31;4193847;28;20090;-77
2023/09/05 08:23:37;;;;;;;11.27;10.18;;;;;;;17.94;69.61;94876.44;4190091;28;20054;-76
2023/09/05 08:25:38;;;;;;;22.80;9.95;;;;;;;18.16;68.91;94887.69;4191714;28;20510;-77
2023/09/05 08:27:41;;;;;;;13.75;10.00;;;;;;;18.41;68.04;94889.75;4188636;28;20106;-79
2023/09/05 08:29:43;;;;;;;10.65;9.15;;;;;;;18.58;67.16;94898.97;4171469;28;20140;-77
2023/09/05 08:31:45;;;;;;;14.80;9.30;;;;;;;18.69;66.86;94886.09;4189180;28;20090;-77
2023/09/05 08:33:47;;;;;;;13.70;9.90;;;;;;;18.45;67.17;94892.84;4183096;28;20045;-76
2023/09/05 08:35:50;;;;;;;11.65;9.48;;;;;;;18.57;67.43;94896.53;4188066;28;20044;-76
2023/09/05 08:37:52;;;;;;;12.27;10.05;;;;;;;18.68;66.51;94887.94;4182373;28;20044;-77
2023/09/05 08:39:54;;;;;;;12.70;9.45;;;;;;;18.78;66.77;94899.00;4168706;28;20069;-76
2023/09/05 08:41:56;;;;;;;14.75;9.73;;;;;;;18.98;66.90;94885.69;4191968;28;20056;-76
2023/09/05 08:43:58;;;;;;;15.30;8.43;;;;;;;19.05;65.74;94891.00;4175642;28;20048;-77
2023/09/05 08:46:01;;;;;;;14.00;8.27;;;;;;;19.15;65.17;94882.63;4173540;28;20044;-77
2023/09/05 08:48:04;;;;;;;12.30;9.07;;;;;;;19.17;64.95;94889.34;4189150;28;20075;-76
2023/09/05 08:50:08;;;;;;;14.40;8.70;;;;;;;19.28;64.62;94895.88;4189803;28;20151;-78
2023/09/05 08:52:10;;;;;;;;;;;;;;;19.12;63.62;94890.97;4192019;28;20122;-76
2023/09/05 08:54:14;;;;;;;13.38;8.25;;;;;;;19.23;63.26;94891.19;4190960;28;20116;-75
2023/09/05 08:56:16;;;;;;;9.30;7.45;;;;;;;19.24;63.51;94892.00;4174196;28;20136;-80
2023/09/05 08:58:18;;;;;;;9.68;7.22;;;;;;;19.15;63.40;94901.22;4193301;28;20757;-80
2023/09/05 09:00:21;;;;;;;12.13;6.97;;;;;;;19.10;63.18;94901.84;4193842;28;20052;-75
2023/09/05 09:02:23;;;;;;;12.10;7.28;;;;;;;19.19;62.68;94891.81;4192719;28;20059;-76
2023/09/05 09:04:26;;;;;;;9.65;6.70;;;;;;;19.40;62.25;94898.69;4189787;28;20077;-75
2023/09/05 09:06:29;;;;;;;10.32;6.75;;;;;;;19.44;61.22;94894.59;4178305;28;20049;-76
2023/09/05 09:08:42;;;;;;;7.70;6.50;;;;;;;19.67;61.33;94902.06;4178420;28;20060;-78
2023/09/05 09:11:05;;;;;;;9.82;6.22;;;;;;;19.54;60.86;94894.16;4192022;28;20457;-76
2023/09/05 09:13:16;;;;;;;8.93;5.90;;;;;;;19.47;61.07;94896.00;4170021;28;20056;-76
2023/09/05 09:15:18;;;;;;;9.20;6.20;;;;;;;19.47;61.33;94896.84;4179914;28;20156;-79
2023/09/05 09:17:23;;;;;;;10.77;6.38;;;;;;;19.43;61.06;94898.28;4182791;28;20152;-76
2023/09/05 09:19:26;;;;;;;10.32;6.47;;;;;;;19.46;60.72;94900.50;4183927;28;20051;-77
2023/09/05 09:21:29;;;;;;;9.70;6.30;;;;;;;19.18;61.21;94888.31;4186513;28;20041;-80
2023/09/05 09:23:35;;;;;;;10.10;6.32;;;;;;;19.08;61.22;94890.59;4184775;28;20053;-76
2023/09/05 09:25:57;;;;;;;11.02;6.00;;;;;;;19.14;60.70;94878.31;4175856;28;20114;-76
2023/09/05 09:27:59;;;;;;;8.88;5.70;;;;;;;18.98;59.99;94892.84;4169047;28;20060;-77
2023/09/05 09:30:01;;;;;;;12.80;6.53;;;;;;;18.97;60.27;94875.28;4192347;28;20604;-77
2023/09/05 09:32:06;;;;;;;8.23;5.55;;;;;;;19.04;60.52;94878.75;4188225;28;20137;-76